Latest Weather Observations for Sydney Olympic Park

IDN60801

Issued at 5:52 am EST Thursday 19 September 2019 (issued every 10 minutes, with the page automatically refreshed every 10 minutes)

About weather observations | Map of weather stations | Latest weather observations for NSW | Other Formats
Station Details ID: 066212 Name: SYDNEY OLYMPIC PARK AWS (ARCHERY CENTRE) Lat: -33.83 Lon: 151.07 Height: 4.0 m
Data from the previous 72 hours. | See also: Recent months at Sydney Olympic Park
Date/Time
EST
Temp
°C
App
Temp
°C
Dew
Point
°C
Rel
Hum
%
Delta-T
°C
Wind Press
QNH
hPa
Press
MSL
hPa
Rain since
9am
mm
Dir  Spd
km/h
Gust
km/h
Spd
kts
Gust
kts
19/05:30am 14.9 15.7 14.9 100 0.0 ESE 4 6 2 3 - - 8.2
19/05:00am 15.1 16.4 15.1 100 0.0 ESE 2 7 1 4 - - 8.2
19/04:30am 15.2 14.8 15.2 100 0.0 ESE 11 17 6 9 - - 8.2
19/04:00am 14.8 14.6 14.8 100 0.0 SE 9 11 5 6 - - 8.2
19/03:30am 14.3 15.3 14.3 100 0.0 ESE 2 9 1 5 - - 8.2
19/03:11am 14.0 15.3 14.0 100 0.0 CALM 0 0 0 0 - - 8.2
19/03:00am 14.3 15.7 14.3 100 0.0 CALM 0 0 0 0 - - 8.2
19/02:30am 13.8 15.0 13.8 100 0.0 CALM 0 0 0 0 - - 8.2
19/02:26am 13.8 15.0 13.8 100 0.0 CALM 0 0 0 0 - - 8.2
19/02:25am 13.7 14.9 13.7 100 0.0 CALM 0 0 0 0 - - 8.2
19/02:00am 13.8 15.0 13.8 100 0.0 CALM 0 0 0 0 - - 8.2
19/01:30am 14.0 14.1 14.0 100 0.0 NNW 6 13 3 7 - - 8.2
19/01:00am 14.0 14.5 14.0 100 0.0 WNW 4 7 2 4 - - 8.2
19/12:30am 14.1 14.6 14.1 100 0.0 WNW 4 7 2 4 - - 8.2
19/12:19am 14.2 14.2 14.2 100 0.0 WNW 7 9 4 5 - - 8.2
19/12:00am 14.3 14.5 14.3 100 0.0 WNW 6 7 3 4 - - 8.2
 
Date/Time
EST
Temp
°C
App
Temp
°C
Dew
Point
°C
Rel
Hum
%
Delta-T
°C
Wind Press
QNH
hPa
Press
MSL
hPa
Rain since
9am
mm
Dir  Spd
km/h
Gust
km/h
Spd
kts
Gust
kts
18/11:30pm 14.4 14.7 14.4 100 0.0 WNW 6 9 3 5 - - 8.2
18/11:00pm 14.5 15.6 14.5 100 0.0 WNW 2 7 1 4 - - 8.2
18/10:30pm 14.7 14.9 14.7 100 0.0 WNW 7 7 4 4 - - 8.2
18/10:22pm 14.8 15.2 14.8 100 0.0 WNW 6 7 3 4 - - 8.2
18/10:00pm 15.0 15.9 15.0 100 0.0 NW 4 7 2 4 - - 8.2
18/09:44pm 15.2 16.1 15.2 100 0.0 WSW 4 9 2 5 - - 8.2
18/09:30pm 15.3 16.7 15.3 100 0.0 WSW 2 7 1 4 - - 8.2
18/09:00pm 15.4 16.0 15.4 100 0.0 SSW 6 11 3 6 - - 8.2
18/08:40pm 15.5 15.6 15.5 100 0.0 SSW 9 13 5 7 - - 8.2
18/08:30pm 15.6 16.1 15.6 100 0.0 SSW 7 15 4 8 - - 8.2
18/08:14pm 15.9 15.8 15.9 100 0.0 SSW 11 15 6 8 - - 8.2
18/08:00pm 16.1 16.4 16.1 100 0.0 SSW 9 15 5 8 - - 8.2
18/07:50pm 16.3 16.7 16.3 100 0.0 SSW 9 15 5 8 - - 8.2
18/07:30pm 16.3 16.7 16.3 100 0.0 S 9 15 5 8 - - 8.2
18/07:24pm 16.3 17.1 16.3 100 0.0 S 7 13 4 7 - - 8.2
18/07:00pm 16.2 16.9 16.2 100 0.0 SSE 7 11 4 6 - - 8.2
18/06:57pm 16.2 17.1 16.2 100 0.0 SSE 6 11 3 6 - - 8.2
18/06:39pm 16.2 16.9 16.2 100 0.0 SSE 7 13 4 7 - - 8.2
18/06:31pm 16.2 17.1 16.2 100 0.0 ESE 6 9 3 5 - - 8.2
18/06:30pm 16.2 17.1 16.2 100 0.0 ESE 6 9 3 5 - - 8.2
18/06:05pm 15.8 17.7 15.8 100 0.0 CALM 0 0 0 0 - - 7.6
18/06:00pm 15.8 17.7 15.8 100 0.0 CALM 0 0 0 0 - - 7.6
18/05:30pm 16.0 18.0 16.0 100 0.0 CALM 0 0 0 0 - - 7.6
18/05:00pm 16.1 17.4 16.1 100 0.0 WNW 4 7 2 4 - - 7.6
18/04:30pm 16.1 17.4 16.1 100 0.0 NW 4 6 2 3 - - 7.4
18/04:00pm 16.0 16.3 16.0 100 0.0 SW 9 11 5 6 - - 7.4
18/03:52pm 16.0 16.7 16.0 100 0.0 SW 7 11 4 6 - - 7.4
18/03:30pm 15.9 17.1 15.9 100 0.0 ESE 4 9 2 5 - - 6.8
18/03:00pm 15.9 15.3 15.7 99 0.1 S 13 24 7 13 - - 4.4
18/02:58pm 16.0 15.5 15.8 99 0.1 S 13 24 7 13 - - 3.4
18/02:30pm 16.3 15.5 16.1 99 0.1 S 15 20 8 11 - - 3.2
18/02:00pm 15.7 15.1 15.7 100 0.0 SSE 13 22 7 12 - - 3.2
18/01:55pm 15.5 15.6 15.5 100 0.0 S 9 22 5 12 - - 3.2
18/01:30pm 15.1 15.1 15.1 100 0.0 SSE 9 15 5 8 - - 2.2
18/01:00pm 14.8 13.1 14.8 100 0.0 S 17 26 9 14 - - 0.0
18/12:30pm 14.9 12.9 14.9 100 0.0 S 19 30 10 16 - - 0.0
18/12:00pm 14.9 13.3 14.9 100 0.0 S 17 28 9 15 - - 0.0
18/11:30am 14.9 12.9 14.9 100 0.0 SSE 19 28 10 15 - - 0.0
18/11:00am 14.8 12.7 14.8 100 0.0 S 19 28 10 15 - - 0.0
18/10:30am 14.6 12.3 14.6 100 0.0 S 20 28 11 15 - - 0.0
18/10:00am 14.4 12.2 14.4 100 0.0 S 19 37 10 20 - - 0.0
18/09:30am 14.4 12.1 14.2 99 0.1 S 19 33 10 18 - - 0.0
18/09:00am 14.4 12.2 14.4 100 0.0 SSE 19 30 10 16 - - 65.0
18/08:30am 14.1 12.2 14.1 100 0.0 S 17 30 9 16 - - 65.0
18/08:00am 13.8 11.7 13.6 99 0.1 S 17 32 9 17 - - 64.6
18/07:30am 13.8 11.3 13.6 99 0.1 SSE 19 33 10 18 - - 63.6
18/07:00am 13.7 11.6 13.5 99 0.1 S 17 24 9 13 - - 62.4
18/06:30am 13.7 11.0 13.5 99 0.1 SSE 20 35 11 19 - - 61.6
18/06:00am 13.8 10.4 13.6 99 0.1 SSE 24 41 13 22 - - 60.2
18/05:42am 14.0 11.4 13.8 99 0.1 SSE 20 37 11 20 - - 59.2
18/05:30am 14.1 11.2 13.9 99 0.1 SSE 22 37 12 20 - - 59.0
18/05:29am 14.1 11.5 13.9 99 0.1 SSE 20 37 11 20 - - 59.0
18/05:00am 13.7 12.0 13.5 99 0.1 S 15 30 8 16 - - 58.8
18/04:47am 13.7 11.2 13.5 99 0.1 S 19 32 10 17 - - 58.4
18/04:30am 13.9 11.8 13.7 99 0.1 S 17 28 9 15 - - 58.2
18/04:29am 13.9 11.8 13.7 99 0.1 S 17 28 9 15 - - 58.2
18/04:00am 13.8 11.8 13.8 100 0.0 SSE 17 30 9 16 - - 57.8
18/03:30am 13.5 11.7 13.3 99 0.1 S 15 26 8 14 - - 56.8
18/03:00am 13.7 11.6 13.5 99 0.1 S 17 28 9 15 - - 55.4
18/02:30am 13.8 11.7 13.6 99 0.1 S 17 32 9 17 - - 55.0
18/02:09am 13.6 11.4 13.4 99 0.1 S 17 28 9 15 - - 53.8
18/02:00am 13.6 11.4 13.4 99 0.1 S 17 26 9 14 - - 53.6
18/01:55am 13.6 11.4 13.4 99 0.1 S 17 28 9 15 - - 53.6
18/01:30am 13.4 11.6 13.2 99 0.1 S 15 28 8 15 - - 53.2
18/01:00am 13.4 11.2 13.2 99 0.1 SSE 17 28 9 15 - - 51.2
18/12:30am 13.2 10.9 13.0 99 0.1 SSE 17 28 9 15 - - 49.8
18/12:00am 13.5 10.7 13.2 98 0.2 SSE 20 33 11 18 - - 49.4
 
Date/Time
EST
Temp
°C
App
Temp
°C
Dew
Point
°C
Rel
Hum
%
Delta-T
°C
Wind Press
QNH
hPa
Press
MSL
hPa
Rain since
9am
mm
Dir  Spd
km/h
Gust
km/h
Spd
kts
Gust
kts
17/11:30pm 13.6 12.1 13.1 97 0.3 SSE 13 20 7 11 - - 48.4
17/11:25pm 13.6 11.7 13.1 97 0.3 SSE 15 24 8 13 - - 48.4
17/11:15pm 13.7 11.4 13.1 96 0.3 SSE 17 32 9 17 - - 48.0
17/11:00pm 13.5 11.7 13.3 99 0.1 S 15 28 8 15 - - 48.0
17/10:52pm 13.5 11.7 13.3 99 0.1 SSE 15 26 8 14 - - 47.6
17/10:30pm 13.2 11.3 13.0 99 0.1 SSE 15 24 8 13 - - 47.4
17/10:00pm 13.3 11.4 13.1 99 0.1 SE 15 39 8 21 - - 46.8
17/09:42pm 13.5 11.1 12.6 94 0.5 SSE 17 28 9 15 - - 45.6
17/09:30pm 13.7 11.2 12.4 92 0.7 SSE 17 30 9 16 - - 45.2
17/09:00pm 13.7 10.7 12.6 93 0.6 SSE 20 32 11 17 - - 44.8
17/08:30pm 13.4 10.7 12.9 97 0.3 SSE 19 28 10 15 - - 44.6
17/08:25pm 13.5 10.9 13.2 98 0.2 SSE 19 30 10 16 - - 44.4
17/08:00pm 13.3 10.4 13.0 98 0.2 SE 20 30 11 16 - - 44.0
17/07:30pm 13.4 10.0 12.5 94 0.5 SE 22 35 12 19 - - 42.4
17/07:22pm 13.6 9.8 12.3 92 0.7 SE 24 46 13 25 - - 41.8
17/07:17pm 13.8 9.9 12.2 90 0.9 SE 24 46 13 25 - - 41.6
17/07:00pm 13.7 10.3 12.4 92 0.7 SE 22 39 12 21 - - 41.0
17/06:51pm 13.7 10.3 12.4 92 0.7 SE 22 35 12 19 - - 40.8
17/06:41pm 13.8 10.4 12.4 91 0.8 SE 22 37 12 20 - - 40.6
17/06:30pm 13.6 9.9 12.7 94 0.5 SE 24 41 13 22 - - 40.4
17/06:19pm 13.5 9.9 12.9 96 0.3 SE 24 41 13 22 - - 40.2
17/06:07pm 13.8 10.2 13.0 95 0.4 SE 24 41 13 22 - - 39.8
17/06:00pm 13.7 10.2 13.4 98 0.2 SSE 24 44 13 24 - - 39.8
17/05:30pm 13.6 10.5 13.4 99 0.1 SE 22 43 12 23 - - 38.8
17/05:00pm 13.7 11.2 13.5 99 0.1 SSE 19 32 10 17 - - 33.4
17/04:48pm 13.7 10.6 13.5 99 0.1 SE 22 35 12 19 - - 33.0
17/04:45pm 13.8 10.8 13.6 99 0.1 SSE 22 35 12 19 - - 32.4
17/04:30pm 13.8 11.7 13.6 99 0.1 SSE 17 33 9 18 - - 32.0
17/04:00pm 13.4 11.2 13.2 99 0.1 S 17 26 9 14 - - 31.4
17/03:30pm 13.5 12.8 13.3 99 0.1 SSE 9 15 5 8 - - 30.0
17/03:00pm 13.6 12.2 13.4 99 0.1 SSE 13 22 7 12 - - 26.0
17/02:30pm 13.6 12.7 13.6 100 0.0 S 11 22 6 12 - - 23.2
17/02:00pm 12.5 10.8 12.3 99 0.1 SW 13 26 7 14 - - 20.8
17/01:30pm 12.2 11.1 12.0 99 0.1 WSW 9 15 5 8 - - 14.4
17/01:00pm 13.1 12.3 12.9 99 0.1 SSW 9 17 5 9 - - 11.8
17/12:30pm 12.7 11.0 12.5 99 0.1 S 13 19 7 10 - - 9.2
17/12:00pm 11.9 10.7 11.7 99 0.1 SSW 9 17 5 9 - - 7.2
17/11:30am 11.2 9.8 11.0 99 0.1 SSW 9 17 5 9 - - 6.0
17/11:26am 11.2 9.8 11.0 99 0.1 SSW 9 17 5 9 - - 5.8
17/11:00am 10.7 9.2 10.5 99 0.1 SW 9 15 5 8 - - 5.2
17/10:30am 10.0 8.9 9.9 99 0.1 WSW 6 11 3 6 - - 2.6
17/10:00am 10.0 8.7 9.9 99 0.1 W 7 13 4 7 - - 1.6
17/09:47am 9.9 8.2 9.8 99 0.1 W 9 13 5 7 - - 1.2
17/09:40am 9.8 8.6 9.7 99 0.0 W 6 13 3 7 - - 1.0
17/09:30am 9.5 7.7 9.4 99 0.0 WSW 9 15 5 8 - - 0.8
17/09:19am 9.5 7.3 9.4 99 0.0 WSW 11 19 6 10 - - 0.4
17/09:00am 9.3 7.4 9.2 99 0.0 WSW 9 17 5 9 - - 13.2
17/08:30am 9.0 6.7 8.9 99 0.0 WSW 11 17 6 9 - - 12.4
17/08:17am 8.9 6.5 8.8 99 0.0 WSW 11 19 6 10 - - 12.2
17/08:00am 8.6 6.2 8.5 99 0.0 WSW 11 19 6 10 - - 11.8
17/07:54am 8.7 6.7 8.6 99 0.0 WSW 9 19 5 10 - - 11.6
17/07:42am 8.7 7.2 8.6 99 0.0 WSW 6 13 3 7 - - 11.4
17/07:30am 8.5 6.8 8.4 99 0.0 WNW 7 13 4 7 - - 11.2
17/07:00am 8.2 5.7 8.1 99 0.0 WNW 11 17 6 9 - - 10.4
17/06:30am 8.2 6.1 8.1 99 0.0 WNW 9 17 5 9 - - 9.2
17/06:00am 8.3 6.6 8.2 99 0.0 WNW 7 13 4 7 - - 8.4
17/05:30am 8.5 6.4 8.4 99 0.0 WNW 9 15 5 8 - - 7.0
17/05:00am 8.8 7.4 8.7 99 0.0 W 6 13 3 7 - - 6.6
17/04:30am 9.2 7.9 9.1 99 0.0 WNW 6 9 3 5 - - 5.8
17/04:00am 9.3 7.4 9.2 99 0.0 WSW 9 17 5 9 - - 5.2
17/03:34am 9.7 7.9 9.6 99 0.0 SW 9 15 5 8 - - 4.8
17/03:30am 9.8 8.0 9.5 98 0.1 SW 9 15 5 8 - - 4.8
17/03:17am 9.9 8.2 9.8 99 0.1 SSW 9 17 5 9 - - 4.8
17/03:00am 10.0 8.9 9.9 99 0.1 SW 6 9 3 5 - - 4.8
17/02:41am 10.3 8.6 9.8 97 0.3 SW 9 17 5 9 - - 4.4
17/02:30am 10.5 8.0 9.6 94 0.5 SSW 13 22 7 12 - - 4.4
17/02:00am 10.9 8.6 10.3 96 0.3 S 13 20 7 11 - - 4.4
17/01:30am 11.3 9.5 10.8 97 0.3 S 11 24 6 13 - - 4.4
17/01:00am 11.2 8.7 11.0 99 0.1 S 15 24 8 13 - - 4.4
17/12:38am 11.2 7.9 11.0 99 0.1 SSE 19 26 10 14 - - 4.2
17/12:30am 11.3 8.8 11.1 99 0.1 SSW 15 24 8 13 - - 4.0
17/12:00am 11.7 9.7 11.5 99 0.1 S 13 24 7 13 - - 3.4
 
Date/Time
EST
Temp
°C
App
Temp
°C
Dew
Point
°C
Rel
Hum
%
Delta-T
°C
Wind Press
QNH
hPa
Press
MSL
hPa
Rain since
9am
mm
Dir  Spd
km/h
Gust
km/h
Spd
kts
Gust
kts
16/11:35pm 12.0 9.3 11.8 99 0.1 S 17 24 9 13 - - 3.0
16/11:30pm 12.1 9.8 11.9 99 0.1 S 15 24 8 13 - - 3.0
16/11:24pm 12.0 10.1 11.8 99 0.1 SSE 13 20 7 11 - - 3.0
16/11:00pm 12.3 10.1 12.1 99 0.1 S 15 28 8 15 - - 2.8
16/10:30pm 12.8 10.4 12.6 99 0.1 SSE 17 26 9 14 - - 1.8
16/10:17pm 13.6 13.5 13.3 98 0.2 ESE 6 17 3 9 - - 1.0
16/10:01pm 13.3 11.0 13.1 99 0.1 SE 17 26 9 14 - - 0.8
16/10:00pm 13.3 11.0 13.1 99 0.1 SE 17 26 9 14 - - 0.8
16/09:30pm 13.6 11.8 13.4 99 0.1 SSE 15 26 8 14 - - 0.8
16/09:00pm 14.6 12.3 13.0 90 0.9 SSE 17 26 9 14 - - 0.6
16/08:54pm 15.3 13.1 12.2 82 1.7 S 15 26 8 14 - - 0.2
16/08:30pm 14.8 12.4 12.7 87 1.2 SSE 17 26 9 14 - - 0.2
16/08:00pm 15.4 13.6 12.0 80 1.8 SSE 13 24 7 13 - - 0.2
16/07:30pm 16.1 13.4 11.7 75 2.4 SSE 17 28 9 15 - - 0.0
16/07:00pm 16.4 14.0 11.3 72 2.7 SSE 15 26 8 14 - - 0.0
16/06:30pm 16.4 14.4 11.6 73 2.6 SSE 13 22 7 12 - - 0.0
16/06:00pm 16.5 13.3 11.9 74 2.5 SSE 20 32 11 17 - - 0.0
16/05:30pm 16.5 12.8 11.6 73 2.7 SSE 22 37 12 20 - - 0.0
16/05:00pm 16.7 12.3 11.8 73 2.7 SE 26 41 14 22 - - 0.0
16/04:30pm 17.0 13.5 12.3 74 2.6 SSE 22 37 12 20 - - 0.0
16/04:00pm 17.4 13.7 12.7 74 2.6 SE 24 41 13 22 - - 0.0
16/03:35pm 17.7 13.3 13.0 74 2.6 SSE 28 56 15 30 - - 0.0
16/03:30pm 18.0 14.4 13.1 73 2.8 SSE 24 50 13 27 - - 0.0
16/03:00pm 19.1 14.3 13.9 72 3.0 SSE 32 50 17 27 - - 0.0
16/02:30pm 20.1 15.6 12.6 62 4.2 SSE 28 54 15 29 - - 0.0
16/02:28pm 20.1 15.5 12.3 61 4.4 SSE 28 54 15 29 - - 0.0
16/02:16pm 22.4 19.5 9.6 44 6.9 SE 15 39 8 21 - - 0.0
16/02:00pm 27.0 26.8 8.9 32 9.9 CALM 0 0 0 0 - - 0.0
16/01:30pm 27.4 24.7 3.8 22 11.8 NNW 7 11 4 6 - - 0.0
16/01:00pm 26.6 23.3 2.5 21 11.7 NW 9 13 5 7 - - 0.0
16/12:30pm 26.2 23.1 3.5 23 11.2 NW 9 15 5 8 - - 0.0
16/12:00pm 26.6 23.0 5.0 25 11.0 NW 13 24 7 13 - - 0.0
16/11:30am 26.0 21.1 2.0 21 11.5 NW 17 26 9 14 - - 0.0
16/11:00am 26.2 22.4 5.7 27 10.5 NW 15 24 8 13 - - 0.0
16/10:30am 25.3 20.4 2.1 22 11.1 NW 17 28 9 15 - - 0.0
16/10:00am 25.9 21.2 3.2 23 11.1 NW 17 30 9 16 - - 0.0
16/09:30am 25.0 20.5 2.4 23 10.9 NNW 15 26 8 14 - - 0.0
16/09:00am 22.2 19.3 2.8 28 9.2 NW 7 13 4 7 - - 0.0
16/08:30am 20.7 19.2 5.1 36 7.7 W 2 9 1 5 - - 0.0
16/08:00am 17.9 17.7 11.9 68 3.3 NW 4 9 2 5 - - 0.0
16/07:30am 14.3 14.9 12.0 86 1.2 CALM 0 0 0 0 - - 0.0
16/07:00am 11.9 12.1 11.7 99 0.1 S 2 7 1 4 - - 0.0
16/06:30am 9.9 9.9 9.8 99 0.1 CALM 0 0 0 0 - - 0.0
16/06:00am 9.5 9.3 8.9 96 0.3 CALM 0 0 0 0 - - 0.0

Other formats

Comma delimited format used in spreadsheet applications
http://www.bom.gov.au/fwo/IDN60801/IDN60801.95765.axf

JavaScript Object Notation format (JSON) in row-major order
http://www.bom.gov.au/fwo/IDN60801/IDN60801.95765.json

Data quality

Most of these data are generated automatically and are frequently updated. Quality checks on data are not normally performed. It is possible for incorrect values to appear. Refer to information at About Latest Weather Observations and please check the disclaimer before using these data.